Time;durP1;ratioP1;P1;durP2;ratioP2;P2;SDS_P1;SDS_P2;PMS_P1;PMS_P2;Temp;Humidity;BMP_temperature;BMP_pressure;BME280_temperature;BME280_humidity;BME280_pressure;Samples;Min_cycle;Max_cycle;Signal;HPM_P1;HPM_P2
2023/07/12 00:01:18;;;;;;;18.33;13.93;;;26.50;99.90;;;;;;5065879;28;20972;-75
2023/07/12 00:03:44;;;;;;;15.87;14.00;;;26.40;99.90;;;;;;5047490;28;20426;-75
2023/07/12 00:06:15;;;;;;;18.77;13.87;;;26.30;99.90;;;;;;5047683;28;20434;-75
2023/07/12 00:08:41;;;;;;;20.33;14.80;;;26.20;99.90;;;;;;5047551;28;20181;-81
2023/07/12 00:11:17;;;;;;;15.60;14.00;;;26.20;99.90;;;;;;5047283;28;20529;-81
2023/07/12 00:13:43;;;;;;;15.93;14.20;;;26.10;99.90;;;;;;5047102;28;20435;-75
2023/07/12 00:16:33;;;;;;;20.40;14.90;;;26.00;99.90;;;;;;5046436;28;20444;-75
2023/07/12 00:18:59;;;;;;;15.37;13.53;;;25.90;99.90;;;;;;5046964;28;20486;-81
2023/07/12 00:21:27;;;;;;;15.70;13.00;;;25.80;99.90;;;;;;5065309;28;20430;-75
2023/07/12 00:23:58;;;;;;;17.43;15.30;;;25.80;99.90;;;;;;5047235;28;20473;-75
2023/07/12 00:26:32;;;;;;;15.97;14.40;;;25.70;99.90;;;;;;5047661;28;20977;-75
2023/07/12 00:28:59;;;;;;;19.07;12.10;;;25.60;99.90;;;;;;5048327;28;20424;-80
2023/07/12 00:31:25;;;;;;;21.23;14.67;;;25.50;99.90;;;;;;5051364;28;20433;-75
2023/07/12 00:33:52;;;;;;;16.70;15.00;;;25.50;99.90;;;;;;5069629;28;20418;-74
2023/07/12 00:36:23;;;;;;;14.80;13.30;;;25.50;99.90;;;;;;5069697;28;20793;-74
2023/07/12 00:38:49;;;;;;;15.53;13.00;;;25.50;99.90;;;;;;5051428;28;20924;-76
2023/07/12 00:41:36;;;;;;;19.90;15.50;;;25.50;99.90;;;;;;5069225;28;20532;-81
2023/07/12 00:44:11;;;;;;;16.17;14.07;;;25.50;99.90;;;;;;5069123;28;20907;-75
2023/07/12 00:46:41;;;;;;;20.17;13.33;;;25.60;99.90;;;;;;5069111;28;20469;-75
2023/07/12 00:49:09;;;;;;;14.70;13.30;;;25.60;99.90;;;;;;5069633;28;20493;-81
2023/07/12 00:51:44;;;;;;;15.43;13.90;;;25.60;99.90;;;;;;5069055;28;20417;-75
2023/07/12 00:54:18;;;;;;;15.60;13.53;;;25.60;99.90;;;;;;5051032;28;20512;-81
2023/07/12 00:56:44;;;;;;;15.83;14.30;;;25.60;99.90;;;;;;5051033;28;20417;-81
2023/07/12 00:59:15;;;;;;;17.03;13.83;;;25.60;99.90;;;;;;5069416;28;20471;-81
2023/07/12 01:01:42;;;;;;;14.80;13.40;;;25.60;99.90;;;;;;5069244;28;20751;-75
2023/07/12 01:04:08;;;;;;;14.73;13.10;;;25.60;99.90;;;;;;5050947;28;20500;-75
2023/07/12 01:06:34;;;;;;;17.00;13.40;;;25.60;99.90;;;;;;5068306;28;20428;-75
2023/07/12 01:09:08;;;;;;;18.00;13.90;;;25.60;99.90;;;;;;5068865;28;20409;-75
2023/07/12 01:11:34;;;;;;;14.57;13.03;;;25.60;99.90;;;;;;5068477;28;20448;-75
2023/07/12 01:14:00;;;;;;;15.00;13.43;;;25.50;99.90;;;;;;5068906;28;20414;-74
2023/07/12 01:16:26;;;;;;;15.57;13.87;;;25.50;99.90;;;;;;5050918;28;20610;-81
2023/07/12 01:18:51;;;;;;;18.73;14.43;;;25.50;99.90;;;;;;5067323;28;20173;-81
2023/07/12 01:21:24;;;;;;;16.13;13.97;;;25.50;99.90;;;;;;5068353;28;20456;-81
2023/07/12 01:23:50;;;;;;;16.43;14.73;;;25.50;99.90;;;;;;5068280;28;20181;-81
2023/07/12 01:26:35;;;;;;;15.77;14.20;;;25.50;99.90;;;;;;5068261;28;20430;-81
2023/07/12 01:29:03;;;;;;;16.33;14.57;;;25.50;99.90;;;;;;5050679;28;20508;-74
2023/07/12 01:31:30;;;;;;;17.70;15.10;;;25.50;99.90;;;;;;5050271;28;20445;-81
2023/07/12 01:33:56;;;;;;;16.43;14.40;;;25.40;99.90;;;;;;5068448;28;21046;-75
2023/07/12 01:36:24;;;;;;;14.80;13.40;;;25.40;99.90;;;;;;5068340;28;20428;-81
2023/07/12 01:38:52;;;;;;;19.03;15.60;;;25.30;99.90;;;;;;5068289;28;20621;-75
2023/07/12 01:41:18;;;;;;;15.97;14.13;;;25.20;99.90;;;;;;5048787;28;20437;-75
2023/07/12 01:43:44;;;;;;;17.63;15.03;;;25.20;99.90;;;;;;5068063;28;20952;-81
2023/07/12 01:46:10;;;;;;;16.87;15.13;;;25.20;99.90;;;;;;5050123;28;20445;-81
2023/07/12 01:48:36;;;;;;;15.40;13.90;;;25.20;99.90;;;;;;5068265;28;21032;-81
2023/07/12 01:51:02;;;;;;;16.90;14.50;;;25.20;99.90;;;;;;5068209;28;20429;-82
2023/07/12 01:53:29;;;;;;;17.40;15.60;;;25.20;99.90;;;;;;5049819;28;20641;-75
2023/07/12 01:55:57;;;;;;;18.60;15.10;;;25.10;99.90;;;;;;5046180;28;20581;-81
2023/07/12 01:58:23;;;;;;;20.83;15.43;;;25.20;99.90;;;;;;5047967;28;20442;-75
2023/07/12 02:00:52;;;;;;;15.33;13.67;;;25.10;99.90;;;;;;5046015;28;21018;-81
2023/07/12 02:03:18;;;;;;;19.17;15.70;;;25.10;99.90;;;;;;5048183;28;20235;-80
2023/07/12 02:05:44;;;;;;;22.23;16.80;;;25.10;99.90;;;;;;5046044;28;20446;-81
2023/07/12 02:08:10;;;;;;;17.47;15.70;;;25.00;99.90;;;;;;5047985;28;20413;-81
2023/07/12 02:10:37;;;;;;;20.63;15.70;;;25.00;99.90;;;;;;5047538;28;20490;-81
2023/07/12 02:13:02;;;;;;;18.50;14.60;;;25.00;99.90;;;;;;5047480;28;20457;-80
2023/07/12 02:15:28;;;;;;;18.87;14.97;;;25.10;99.90;;;;;;5047653;28;20476;-81
2023/07/12 02:17:54;;;;;;;20.30;15.87;;;25.00;99.90;;;;;;5045564;28;20185;-81
2023/07/12 02:20:20;;;;;;;21.33;16.67;;;25.10;99.90;;;;;;5046229;28;20505;-74
2023/07/12 02:22:47;;;;;;;20.87;16.20;;;25.00;99.90;;;;;;5045818;28;20193;-75
2023/07/12 02:25:14;;;;;;;18.83;15.17;;;25.00;99.90;;;;;;5045649;28;20205;-75
2023/07/12 02:27:40;;;;;;;17.90;15.40;;;25.00;99.90;;;;;;5047639;28;20918;-81
2023/07/12 02:30:12;;;;;;;21.40;17.27;;;25.00;99.90;;;;;;5047152;28;20452;-75
2023/07/12 02:32:38;;;;;;;17.93;15.93;;;25.00;99.90;;;;;;5045868;28;20422;-80
2023/07/12 02:35:04;;;;;;;17.10;14.50;;;24.90;99.90;;;;;;5046610;28;21028;-75
2023/07/12 02:37:30;;;;;;;19.90;15.80;;;24.90;99.90;;;;;;5047184;28;20173;-75
2023/07/12 02:39:56;;;;;;;20.27;16.47;;;24.90;99.90;;;;;;5045289;28;20503;-74
2023/07/12 02:42:21;;;;;;;19.07;16.43;;;24.90;99.90;;;;;;5045444;28;20204;-76
2023/07/12 02:44:47;;;;;;;17.53;15.73;;;25.00;99.90;;;;;;5046545;28;20796;-81
2023/07/12 02:47:13;;;;;;;19.23;15.90;;;24.90;99.90;;;;;;5047141;28;20193;-75
2023/07/12 02:49:39;;;;;;;17.70;15.90;;;25.00;99.90;;;;;;5045259;28;20209;-75
2023/07/12 02:52:08;;;;;;;17.27;15.20;;;24.90;99.90;;;;;;5044937;28;20185;-80
2023/07/12 02:54:35;;;;;;;20.07;15.00;;;25.00;99.90;;;;;;5044903;28;20742;-81
2023/07/12 02:57:02;;;;;;;21.20;14.53;;;25.00;99.90;;;;;;5046620;28;20914;-81
2023/07/12 02:59:28;;;;;;;20.53;15.03;;;25.10;99.90;;;;;;5046435;28;20473;-78
2023/07/12 03:01:54;;;;;;;20.33;15.87;;;25.10;99.90;;;;;;5045271;28;20502;-81
2023/07/12 03:04:21;;;;;;;20.40;16.17;;;25.20;99.90;;;;;;5046381;28;20248;-75
2023/07/12 03:06:48;;;;;;;19.63;16.27;;;25.20;99.90;;;;;;5045094;28;20423;-75
2023/07/12 03:09:14;;;;;;;20.30;16.37;;;25.20;99.90;;;;;;5045186;28;20436;-81
2023/07/12 03:11:39;;;;;;;16.97;14.50;;;25.20;99.90;;;;;;5046576;28;20701;-75
2023/07/12 03:14:06;;;;;;;21.57;15.80;;;25.20;99.90;;;;;;5046577;28;20422;-81
2023/07/12 03:16:32;;;;;;;21.27;15.07;;;25.20;99.90;;;;;;5044916;28;20209;-81
2023/07/12 03:19:00;;;;;;;23.53;15.57;;;25.20;99.90;;;;;;5045233;28;20968;-80
2023/07/12 03:21:26;;;;;;;22.17;16.80;;;25.10;99.90;;;;;;5045665;28;20517;-75
2023/07/12 03:23:52;;;;;;;21.13;17.80;;;25.10;99.90;;;;;;5046237;28;20410;-75
2023/07/12 03:26:17;;;;;;;19.80;17.70;;;25.10;99.90;;;;;;5046288;28;20536;-75
2023/07/12 03:28:43;;;;;;;21.10;17.67;;;25.00;99.90;;;;;;5045355;28;20208;-81
2023/07/12 03:31:15;;;;;;;20.07;18.07;;;25.00;99.90;;;;;;5046440;28;20793;-81
2023/07/12 03:33:42;;;;;;;21.10;17.93;;;24.90;99.90;;;;;;5043817;28;20525;-81
2023/07/12 03:36:08;;;;;;;23.03;17.57;;;24.90;99.90;;;;;;5044580;28;20446;-76
2023/07/12 03:38:35;;;;;;;22.20;17.60;;;24.90;99.90;;;;;;5044725;28;20455;-75
2023/07/12 03:41:03;;;;;;;28.17;20.03;;;24.90;99.90;;;;;;5045780;28;20941;-82
2023/07/12 03:43:30;;;;;;;28.70;17.33;;;24.90;99.90;;;;;;5046006;28;20408;-82
2023/07/12 03:45:55;;;;;;;23.73;18.30;;;24.90;99.90;;;;;;5045587;28;20474;-75
2023/07/12 03:48:23;;;;;;;19.73;17.60;;;24.90;99.90;;;;;;5044713;28;20460;-81
2023/07/12 03:50:49;;;;;;;20.63;17.27;;;24.90;99.90;;;;;;5044174;28;20699;-82
2023/07/12 03:53:16;;;;;;;18.83;16.03;;;24.90;99.90;;;;;;5046159;28;20413;-82
2023/07/12 03:55:43;;;;;;;20.93;17.40;;;24.90;99.90;;;;;;5063093;28;20481;-82
2023/07/12 03:58:11;;;;;;;22.20;17.20;;;25.00;99.90;;;;;;5065778;28;20928;-75
2023/07/12 04:00:41;;;;;;;24.87;17.40;;;25.00;99.90;;;;;;5065357;28;20476;-82
2023/07/12 04:03:06;;;;;;;23.40;17.60;;;25.00;99.90;;;;;;5065505;28;20925;-82
2023/07/12 04:05:37;;;;;;;20.57;16.80;;;25.00;99.90;;;;;;5063609;28;20449;-75
2023/07/12 04:08:03;;;;;;;19.60;17.60;;;25.10;99.90;;;;;;5065657;28;20649;-81
2023/07/12 04:10:29;;;;;;;24.20;16.83;;;25.20;99.90;;;;;;5047340;28;20545;-81
2023/07/12 04:12:55;;;;;;;22.80;18.33;;;25.20;99.90;;;;;;5065117;28;20625;-75
2023/07/12 04:15:24;;;;;;;23.40;17.07;;;25.20;99.90;;;;;;5047288;28;20532;-81
2023/07/12 04:17:50;;;;;;;20.13;16.60;;;25.10;99.90;;;;;;5047294;28;20233;-82
2023/07/12 04:20:16;;;;;;;19.47;17.30;;;25.10;99.90;;;;;;5065094;28;20473;-75
2023/07/12 04:22:42;;;;;;;18.17;16.30;;;25.10;99.90;;;;;;5045879;28;20633;-82
2023/07/12 04:25:09;;;;;;;21.77;16.73;;;25.10;99.90;;;;;;5065184;28;20795;-76
2023/07/12 04:27:37;;;;;;;20.10;17.07;;;25.20;99.90;;;;;;5047209;28;20180;-75
2023/07/12 04:30:08;;;;;;;20.73;17.60;;;25.20;99.90;;;;;;5064763;28;20434;-75
2023/07/12 04:32:34;;;;;;;18.93;16.07;;;25.10;99.90;;;;;;5065278;28;20981;-82
2023/07/12 04:35:00;;;;;;;19.63;16.47;;;25.20;99.90;;;;;;5063345;28;20432;-81
2023/07/12 04:37:26;;;;;;;32.40;18.13;;;25.30;99.90;;;;;;5027410;28;20415;-75
2023/07/12 04:39:52;;;;;;;21.83;16.60;;;25.30;99.90;;;;;;5063479;28;20889;-75
2023/07/12 04:42:18;;;;;;;18.33;16.50;;;25.30;99.90;;;;;;5065096;28;20792;-77
2023/07/12 04:44:44;;;;;;;20.03;17.67;;;25.30;99.90;;;;;;5065082;28;20201;-82
2023/07/12 04:47:10;;;;;;;23.73;17.00;;;25.30;99.90;;;;;;5058884;28;20895;-80
2023/07/12 04:49:36;;;;;;;20.73;17.33;;;25.40;99.90;;;;;;5064380;28;20452;-75
2023/07/12 04:52:04;;;;;;;18.73;16.73;;;25.50;99.90;;;;;;5065411;28;20716;-75
2023/07/12 04:54:29;;;;;;;18.50;16.50;;;25.50;99.90;;;;;;5045711;28;20496;-81
2023/07/12 04:56:55;;;;;;;20.23;15.90;;;25.50;99.90;;;;;;5041765;28;20446;-74
2023/07/12 04:59:21;;;;;;;23.27;15.37;;;25.50;99.90;;;;;;5064544;28;20212;-81
2023/07/12 05:01:46;;;;;;;24.00;17.33;;;25.60;99.90;;;;;;5042445;28;20653;-81
2023/07/12 05:04:13;;;;;;;17.67;15.87;;;25.70;99.90;;;;;;5052516;28;20280;-75
2023/07/12 05:06:39;;;;;;;20.60;16.30;;;25.70;99.90;;;;;;5057952;28;20177;-75
2023/07/12 05:09:05;;;;;;;20.03;15.83;;;25.80;99.90;;;;;;5061702;28;20426;-76
2023/07/12 05:11:31;;;;;;;17.80;15.40;;;25.80;99.90;;;;;;5062814;28;20586;-81
2023/07/12 05:13:57;;;;;;;27.30;16.67;;;25.90;99.90;;;;;;5043728;28;20441;-82
2023/07/12 05:16:23;;;;;;;18.03;15.03;;;26.00;99.90;;;;;;5060322;28;20568;-82
2023/07/12 05:18:48;;;;;;;17.60;15.00;;;26.00;99.90;;;;;;5046828;28;20261;-76
2023/07/12 05:21:14;;;;;;;18.10;14.40;;;26.10;99.90;;;;;;5027866;28;20572;-75
2023/07/12 05:23:40;;;;;;;19.13;14.53;;;26.20;99.90;;;;;;5045068;28;20491;-81
2023/07/12 05:26:06;;;;;;;40.87;24.63;;;26.20;99.90;;;;;;5043955;28;20704;-81
2023/07/12 05:28:32;;;;;;;25.37;17.97;;;26.30;99.90;;;;;;5046320;28;20418;-75
2023/07/12 05:30:58;;;;;;;23.27;16.13;;;26.40;99.90;;;;;;5058555;28;20703;-81
2023/07/12 05:33:23;;;;;;;18.97;14.50;;;26.40;99.90;;;;;;5029045;28;20231;-75
2023/07/12 05:35:49;;;;;;;19.60;14.57;;;26.50;99.90;;;;;;5047112;28;20206;-81
2023/07/12 05:38:15;;;;;;;18.17;15.03;;;26.60;99.90;;;;;;5047206;28;20672;-75
2023/07/12 05:40:41;;;;;;;17.67;12.97;;;26.60;99.90;;;;;;5046051;28;20278;-82
2023/07/12 05:43:06;;;;;;;20.03;14.73;;;26.60;99.90;;;;;;5044284;28;20635;-81
2023/07/12 05:45:32;;;;;;;17.03;13.17;;;26.70;99.90;;;;;;5046231;28;20198;-74
2023/07/12 05:47:58;;;;;;;16.50;14.23;;;26.80;99.90;;;;;;5045294;28;20174;-81
2023/07/12 05:50:25;;;;;;;20.50;15.03;;;26.80;99.90;;;;;;5043414;28;20585;-80
2023/07/12 05:52:51;;;;;;;19.50;14.50;;;26.90;99.90;;;;;;5048522;28;20738;-75
2023/07/12 05:55:18;;;;;;;21.20;14.30;;;26.90;99.90;;;;;;5059685;28;20463;-82
2023/07/12 05:57:44;;;;;;;19.33;14.30;;;26.90;99.90;;;;;;5061106;28;20181;-81
2023/07/12 06:00:13;;;;;;;17.93;13.20;;;27.00;99.90;;;;;;5044309;28;20494;-75
2023/07/12 06:02:39;;;;;;;17.43;14.57;;;27.00;99.90;;;;;;5054109;28;20832;-81
2023/07/12 06:05:06;;;;;;;18.57;13.63;;;27.10;99.90;;;;;;5051380;28;20447;-75
2023/07/12 06:07:32;;;;;;;15.37;13.70;;;27.10;99.90;;;;;;5052881;28;20666;-75
2023/07/12 06:09:59;;;;;;;14.77;13.27;;;27.20;99.90;;;;;;5031424;28;20946;-80
2023/07/12 06:12:25;;;;;;;16.67;12.97;;;27.40;99.90;;;;;;5037632;28;20493;-76
2023/07/12 06:14:50;;;;;;;19.07;12.50;;;27.50;99.90;;;;;;5033964;28;20847;-82
2023/07/12 06:17:16;;;;;;;15.20;12.77;;;27.60;99.90;;;;;;5051393;28;20407;-81
2023/07/12 06:19:41;;;;;;;15.83;12.60;;;27.80;99.90;;;;;;5049536;28;20307;-75
2023/07/12 06:22:07;;;;;;;15.80;13.27;;;27.90;99.90;;;;;;5033534;28;20182;-79
2023/07/12 06:24:33;;;;;;;14.40;12.13;;;28.00;99.90;;;;;;5051074;28;20704;-75
2023/07/12 06:26:58;;;;;;;17.87;12.50;;;28.20;99.90;;;;;;5054275;28;20199;-76
2023/07/12 06:29:25;;;;;;;21.00;12.83;;;28.30;99.90;;;;;;5058045;28;20180;-81
2023/07/12 06:31:54;;;;;;;14.67;10.27;;;28.50;99.90;;;;;;5052758;28;20425;-76
2023/07/12 06:34:19;;;;;;;15.73;11.23;;;28.60;99.90;;;;;;5056925;28;20468;-75
2023/07/12 06:36:45;;;;;;;18.27;11.73;;;28.70;99.90;;;;;;5061881;28;20516;-83
2023/07/12 06:39:11;;;;;;;14.63;13.00;;;28.90;99.90;;;;;;5043292;28;20240;-76
2023/07/12 06:41:36;;;;;;;14.93;12.33;;;29.00;99.90;;;;;;5035262;28;20210;-77
2023/07/12 06:44:02;;;;;;;20.20;12.90;;;29.10;99.90;;;;;;5061345;28;20269;-83
2023/07/12 06:46:28;;;;;;;14.87;12.37;;;29.30;99.90;;;;;;5043810;28;20238;-83
2023/07/12 06:48:53;;;;;;;20.57;12.33;;;29.40;99.90;;;;;;5054117;28;20190;-76
2023/07/12 06:51:19;;;;;;;16.23;11.53;;;29.50;99.90;;;;;;5051774;28;20234;-83
2023/07/12 06:53:45;;;;;;;19.33;11.90;;;29.70;99.90;;;;;;5052264;28;20341;-75
2023/07/12 06:56:11;;;;;;;13.47;11.10;;;29.80;99.90;;;;;;5051873;28;20257;-76
2023/07/12 06:58:36;;;;;;;14.37;10.93;;;29.90;99.90;;;;;;5037383;28;20210;-82
2023/07/12 07:01:10;;;;;;;13.80;12.43;;;30.00;99.90;;;;;;5059153;28;20223;-82
2023/07/12 07:03:36;;;;;;;16.53;11.53;;;30.10;99.90;;;;;;5061873;28;20175;-81
2023/07/12 07:06:02;;;;;;;15.90;12.40;;;30.20;99.90;;;;;;5053667;28;20538;-82
2023/07/12 07:08:28;;;;;;;18.83;12.47;;;30.30;99.90;;;;;;5030326;28;20438;-81
2023/07/12 07:10:54;;;;;;;12.97;11.47;;;30.50;99.90;;;;;;5036650;28;21053;-76
2023/07/12 07:13:22;;;;;;;14.73;11.60;;;30.60;99.90;;;;;;5042407;28;20733;-82
2023/07/12 07:15:48;;;;;;;12.73;11.43;;;30.70;99.90;;;;;;5023768;28;20441;-76
2023/07/12 07:18:15;;;;;;;12.50;11.37;;;30.80;99.90;;;;;;5022436;28;20663;-76
2023/07/12 07:20:41;;;;;;;14.43;12.93;;;30.80;99.90;;;;;;5045318;28;20481;-83
2023/07/12 07:23:07;;;;;;;11.73;10.30;;;31.00;99.90;;;;;;5045991;28;20801;-76
2023/07/12 07:25:32;;;;;;;11.30;10.10;;;31.00;99.90;;;;;;5053221;28;20665;-76
2023/07/12 07:27:58;;;;;;;12.40;11.30;;;31.00;99.90;;;;;;5041650;28;20185;-75
2023/07/12 07:30:24;;;;;;;15.97;10.80;;;31.20;99.90;;;;;;5054514;28;20213;-82
2023/07/12 07:32:50;;;;;;;13.30;9.83;;;31.10;99.90;;;;;;5029322;28;20203;-76
2023/07/12 07:35:16;;;;;;;16.33;9.87;;;31.20;99.90;;;;;;5047746;28;20196;-82
2023/07/12 07:37:42;;;;;;;13.33;9.90;;;31.30;99.90;;;;;;5048097;28;20423;-82
2023/07/12 07:40:09;;;;;;;18.43;9.70;;;31.50;99.90;;;;;;5030896;28;20534;-76
2023/07/12 07:42:35;;;;;;;10.13;9.23;;;31.60;99.90;;;;;;5047925;28;21040;-76
2023/07/12 07:45:01;;;;;;;13.90;10.93;;;31.80;99.90;;;;;;5032519;28;20458;-82
2023/07/12 07:47:26;;;;;;;13.40;9.50;;;31.90;99.90;;;;;;5028899;28;20675;-82
2023/07/12 07:49:53;;;;;;;12.27;9.70;;;32.00;99.90;;;;;;5047467;28;20889;-76
2023/07/12 07:52:19;;;;;;;11.03;8.30;;;32.10;99.90;;;;;;5025433;28;20173;-82
2023/07/12 07:54:44;;;;;;;21.13;9.40;;;32.20;99.90;;;;;;5029719;28;20481;-76
2023/07/12 07:57:10;;;;;;;10.83;8.17;;;32.30;99.90;;;;;;5052447;28;20733;-81
2023/07/12 07:59:36;;;;;;;13.23;9.03;;;32.30;99.90;;;;;;5052654;28;20236;-82
2023/07/12 08:02:01;;;;;;;13.27;8.80;;;32.30;99.70;;;;;;5030677;28;20211;-76
2023/07/12 08:04:27;;;;;;;8.83;8.07;;;32.20;99.90;;;;;;5029144;28;20231;-77
2023/07/12 08:06:53;;;;;;;12.60;8.37;;;32.30;99.90;;;;;;5055645;28;20789;-77
2023/07/12 08:09:18;;;;;;;8.83;7.37;;;32.40;99.80;;;;;;5056442;28;20193;-76
2023/07/12 08:11:44;;;;;;;11.17;7.27;;;32.40;99.20;;;;;;5057089;28;20217;-82
2023/07/12 08:14:09;;;;;;;10.67;8.00;;;32.40;99.10;;;;;;5056352;28;20255;-82
2023/07/12 08:16:37;;;;;;;10.20;8.20;;;32.40;99.10;;;;;;5036156;28;20281;-82
2023/07/12 08:19:03;;;;;;;17.70;8.60;;;32.50;99.00;;;;;;5053540;28;20188;-82
2023/07/12 08:21:30;;;;;;;12.30;8.27;;;32.50;99.20;;;;;;5050692;28;20480;-82
2023/07/12 08:23:56;;;;;;;13.80;8.27;;;32.60;99.00;;;;;;5060671;28;20540;-76
2023/07/12 08:26:22;;;;;;;10.47;8.13;;;32.60;98.90;;;;;;5029064;28;20931;-76
2023/07/12 08:28:48;;;;;;;12.77;8.80;;;32.70;99.10;;;;;;5053100;28;20190;-82
2023/07/12 08:31:15;;;;;;;10.60;8.13;;;32.80;99.00;;;;;;5059784;28;21169;-76
2023/07/12 08:33:43;;;;;;;9.10;8.30;;;33.10;98.90;;;;;;5034660;28;21173;-76
2023/07/12 08:36:10;;;;;;;12.67;8.80;;;33.10;98.40;;;;;;5054882;28;21081;-82
2023/07/12 08:51:32;;;;;;;12.43;7.60;;;33.00;97.70;;;;;;5110228;27;20660;-81
2023/07/12 08:53:58;;;;;;;13.83;8.00;;;33.30;96.50;;;;;;5111787;28;20443;-75
2023/07/12 08:56:25;;;;;;;9.13;8.10;;;33.30;96.40;;;;;;5111685;27;20834;-75
2023/07/12 08:58:53;;;;;;;9.40;8.40;;;33.30;96.30;;;;;;5117265;28;20228;-75
2023/07/12 09:01:53;;;;;;;11.37;7.40;;;33.30;96.60;;;;;;5114997;28;20967;-75
2023/07/12 09:04:31;;;;;;;13.10;8.00;;;33.30;96.30;;;;;;5116586;28;20443;-75
2023/07/12 09:06:59;;;;;;;8.43;6.77;;;33.40;96.60;;;;;;5109668;28;20464;-75
2023/07/12 09:09:27;;;;;;;9.07;7.53;;;33.40;96.50;;;;;;5107366;28;20498;-75
2023/07/12 09:11:54;;;;;;;9.90;8.60;;;33.50;96.50;;;;;;5110357;27;20949;-76
2023/07/12 09:14:23;;;;;;;14.60;8.60;;;33.50;96.50;;;;;;5107587;27;21030;-82
2023/07/12 09:16:54;;;;;;;15.40;9.17;;;33.60;96.50;;;;;;5111127;28;20427;-81
2023/07/12 09:19:23;;;;;;;11.93;8.30;;;33.70;96.70;;;;;;5100517;28;20841;-75
2023/07/12 09:22:00;;;;;;;13.20;8.67;;;33.80;96.70;;;;;;5108727;28;20548;-81
2023/07/12 09:24:32;;;;;;;12.73;9.70;;;33.90;96.70;;;;;;5113648;27;20418;-75
2023/07/12 09:27:19;;;;;;;14.07;8.80;;;34.00;96.90;;;;;;5108614;28;20461;-81
2023/07/12 09:29:46;;;;;;;13.40;10.80;;;34.00;97.50;;;;;;5103800;28;20490;-81
2023/07/12 09:32:20;;;;;;;20.10;10.40;;;33.90;97.30;;;;;;5110266;28;20431;-76
2023/07/12 09:34:47;;;;;;;13.30;10.93;;;33.60;97.60;;;;;;5109883;27;20534;-75
2023/07/12 09:37:20;;;;;;;11.87;10.80;;;33.70;98.00;;;;;;5112637;27;21227;-80
2023/07/12 09:40:00;;;;;;;23.27;11.73;;;33.70;98.30;;;;;;5104713;28;20499;-76
2023/07/12 09:42:27;;;;;;;12.00;10.80;;;33.70;98.30;;;;;;5111056;28;20990;-75
2023/07/12 09:44:53;;;;;;;14.67;11.70;;;33.60;98.80;;;;;;5105645;28;21168;-75
2023/07/12 09:47:22;;;;;;;13.33;10.00;;;33.60;98.50;;;;;;5108132;27;20463;-81
2023/07/12 09:50:01;;;;;;;17.80;11.00;;;33.40;98.60;;;;;;5108198;27;20506;-81
2023/07/12 09:52:41;;;;;;;11.27;10.17;;;33.30;98.70;;;;;;5099062;27;20436;-81
2023/07/12 09:55:17;;;;;;;11.10;10.00;;;33.40;98.50;;;;;;5092824;28;20464;-75
2023/07/12 09:58:02;;;;;;;18.03;9.80;;;33.40;98.80;;;;;;5097241;28;20435;-75
2023/07/12 10:00:37;;;;;;;15.03;10.17;;;33.50;98.30;;;;;;5099191;28;21048;-81
2023/07/12 10:03:29;;;;;;;11.77;10.07;;;33.50;98.20;;;;;;5104634;28;20947;-81
2023/07/12 10:06:04;;;;;;;10.07;8.93;;;33.60;98.00;;;;;;5100963;28;20516;-81
2023/07/12 10:08:51;;;;;;;12.00;10.90;;;33.50;97.90;;;;;;5091467;28;20462;-81
2023/07/12 10:11:26;;;;;;;14.63;9.60;;;33.60;98.30;;;;;;5080243;28;20521;-81
2023/07/12 10:13:56;;;;;;;14.53;11.83;;;33.60;98.30;;;;;;5103731;28;20947;-79
2023/07/12 10:16:34;;;;;;;12.67;9.73;;;33.60;98.00;;;;;;5103102;28;20898;-79
2023/07/12 10:19:05;;;;;;;13.27;10.77;;;33.60;98.10;;;;;;5101286;28;21031;-80
2023/07/12 10:21:32;;;;;;;13.33;12.03;;;33.60;98.00;;;;;;5100180;28;20452;-75
2023/07/12 10:24:02;;;;;;;12.13;10.93;;;33.60;98.20;;;;;;5101763;28;20443;-79
2023/07/12 10:26:28;;;;;;;14.37;10.30;;;33.50;98.10;;;;;;5092382;28;20444;-76
2023/07/12 10:29:11;;;;;;;10.67;9.60;;;33.50;97.80;;;;;;5101720;28;20424;-80
2023/07/12 10:31:55;;;;;;;11.87;10.73;;;33.50;98.10;;;;;;5098315;28;20250;-76
2023/07/12 10:34:21;;;;;;;11.27;9.87;;;33.40;98.30;;;;;;5093856;28;20443;-80
2023/07/12 10:36:50;;;;;;;12.80;10.83;;;33.30;98.30;;;;;;5093859;28;20485;-80
2023/07/12 10:39:16;;;;;;;11.57;10.40;;;33.30;98.40;;;;;;5090422;28;20208;-80
2023/07/12 10:41:46;;;;;;;12.33;9.50;;;33.30;98.40;;;;;;5085285;28;20572;-76
2023/07/12 10:44:34;;;;;;;10.27;9.27;;;33.30;98.30;;;;;;5095882;28;20235;-83
2023/07/12 10:47:04;;;;;;;12.00;9.30;;;33.20;98.40;;;;;;5100742;28;20475;-74
2023/07/12 10:49:42;;;;;;;10.33;8.93;;;33.10;98.50;;;;;;5084617;28;20476;-81
2023/07/12 10:52:11;;;;;;;17.77;10.63;;;33.10;98.20;;;;;;5099673;28;20443;-80
2023/07/12 10:54:39;;;;;;;9.07;7.60;;;33.00;98.20;;;;;;5089544;28;20497;-82
2023/07/12 10:57:27;;;;;;;12.20;8.70;;;32.90;97.90;;;;;;5093194;28;20478;-74
2023/07/12 11:00:24;;;;;;;16.57;9.40;;;32.70;98.30;;;;;;5093702;28;20469;-82
2023/07/12 11:03:01;;;;;;;13.93;8.83;;;32.70;98.70;;;;;;5091382;28;20723;-82
2023/07/12 11:05:39;;;;;;;13.17;8.90;;;32.90;98.40;;;;;;5092006;28;20456;-83
2023/07/12 11:08:05;;;;;;;13.53;9.27;;;33.10;98.10;;;;;;5086426;27;20432;-77
2023/07/12 11:10:35;;;;;;;14.30;8.47;;;33.30;97.40;;;;;;5095332;28;20452;-84
2023/07/12 11:13:12;;;;;;;12.43;8.83;;;33.40;97.50;;;;;;5100785;28;20722;-82
2023/07/12 11:15:58;;;;;;;14.63;8.80;;;33.30;97.20;;;;;;5086568;28;20492;-76
2023/07/12 11:18:31;;;;;;;13.43;9.50;;;33.30;97.20;;;;;;5096730;28;20432;-76
2023/07/12 11:21:04;;;;;;;12.23;8.67;;;33.40;96.90;;;;;;5102598;28;20490;-76
2023/07/12 11:23:47;;;;;;;10.83;8.57;;;33.40;96.60;;;;;;5093681;28;20538;-82
2023/07/12 11:26:41;;;;;;;11.27;8.73;;;33.50;96.70;;;;;;5099000;28;20825;-76
2023/07/12 11:29:22;;;;;;;11.93;8.97;;;33.60;96.50;;;;;;5095371;28;20786;-76
2023/07/12 11:31:57;;;;;;;8.10;7.30;;;33.60;96.30;;;;;;5091841;28;20463;-76
2023/07/12 11:34:24;;;;;;;9.10;8.30;;;33.70;96.20;;;;;;5093347;28;20492;-82
2023/07/12 11:36:56;;;;;;;17.80;8.70;;;33.80;96.40;;;;;;5087754;28;20774;-77
2023/07/12 11:39:24;;;;;;;10.23;8.50;;;33.80;96.30;;;;;;5083130;28;20564;-83
2023/07/12 11:41:59;;;;;;;11.63;8.97;;;34.00;96.60;;;;;;5091055;28;20467;-83
2023/07/12 11:44:25;;;;;;;15.60;9.37;;;34.10;96.10;;;;;;5093446;28;20467;-76
2023/07/12 11:46:51;;;;;;;16.47;9.50;;;34.20;95.80;;;;;;5092439;28;20875;-77
2023/07/12 11:49:25;;;;;;;11.37;9.03;;;34.30;96.00;;;;;;5091334;28;20918;-76
2023/07/12 11:52:01;;;;;;;11.67;7.90;;;34.40;96.00;;;;;;5096388;28;20470;-80
2023/07/12 11:54:34;;;;;;;13.47;9.87;;;34.40;95.00;;;;;;5087097;28;20948;-79
2023/07/12 11:57:02;;;;;;;13.00;7.67;;;34.40;94.90;;;;;;5084363;28;20980;-81
2023/07/12 11:59:36;;;;;;;11.70;8.33;;;34.40;94.30;;;;;;5095833;28;20480;-81
2023/07/12 12:02:05;;;;;;;9.27;7.33;;;34.40;94.30;;;;;;5091962;28;20475;-81
2023/07/12 12:04:31;;;;;;;8.93;7.40;;;34.20;94.00;;;;;;5098262;28;20944;-75
2023/07/12 12:07:18;;;;;;;13.23;7.97;;;34.20;94.30;;;;;;5091851;28;20556;-76
2023/07/12 12:09:44;;;;;;;11.43;7.90;;;34.30;94.30;;;;;;5093567;28;20808;-75
2023/07/12 12:12:17;;;;;;;13.33;7.80;;;34.10;94.10;;;;;;5097601;28;20470;-76
2023/07/12 12:14:48;;;;;;;13.23;8.70;;;34.10;94.20;;;;;;5094814;28;20269;-76
2023/07/12 12:17:25;;;;;;;9.20;7.33;;;34.10;94.20;;;;;;5094135;28;20448;-83
2023/07/12 12:20:13;;;;;;;16.00;9.07;;;34.20;94.20;;;;;;5092255;28;20687;-76
2023/07/12 12:22:43;;;;;;;14.20;9.17;;;34.20;94.50;;;;;;5093607;28;20472;-82
2023/07/12 12:25:21;;;;;;;14.67;8.83;;;34.20;95.60;;;;;;5089283;28;20427;-83
2023/07/12 12:27:48;;;;;;;12.20;8.20;;;34.20;96.10;;;;;;5096008;28;20444;-83
2023/07/12 12:30:32;;;;;;;10.90;8.53;;;34.20;95.50;;;;;;5089052;28;20469;-83
2023/07/12 12:33:24;;;;;;;11.80;7.90;;;34.30;95.10;;;;;;5108484;27;20838;-83
2023/07/12 12:35:55;;;;;;;10.03;7.70;;;34.30;95.20;;;;;;5092078;28;20449;-77
2023/07/12 12:38:25;;;;;;;10.77;8.10;;;34.30;94.50;;;;;;5094619;28;20467;-76
2023/07/12 12:41:01;;;;;;;11.90;7.43;;;34.30;94.60;;;;;;5087668;28;20500;-82
2023/07/12 12:43:27;;;;;;;11.37;8.20;;;34.30;94.50;;;;;;5094936;28;21263;-83
2023/07/12 12:45:54;;;;;;;12.10;7.70;;;34.30;94.60;;;;;;5091411;28;20542;-82
2023/07/12 12:48:19;;;;;;;9.00;6.20;;;34.30;94.80;;;;;;5096806;28;20656;-76
2023/07/12 12:50:45;;;;;;;10.23;7.90;;;34.20;94.70;;;;;;5092348;28;20468;-77
2023/07/12 12:53:14;;;;;;;9.73;8.60;;;34.20;94.80;;;;;;5097155;28;20587;-79